| time (UTC) | temp C | wind direction | speed KPH | gust KPH | rain 1hr cm | rain 24hr cm | rain mn cm | humidity % | barometer mb |
| 20260906231022 | 36 | 166 | 4.8 | 16.1 | 0.00 | 0.00 | 0.00 | 42 | 1011.3 |
| 20260906230518 | 36 | 127 | 6.4 | 16.1 | 0.00 | 0.00 | 0.00 | 42 | 1011.2 |
| 20260906230037 | 36 | 0 | 3.2 | 11.3 | 0.00 | 0.00 | 0.00 | 42 | 1011.2 |
| 20260906225518 | 36 | 93 | 3.2 | 11.3 | 0.00 | 0.00 | 0.00 | 42 | 1011.2 |
| 20260906225016 | 36 | 160 | 3.2 | 16.1 | 0.00 | 0.00 | 0.00 | 41 | 1011.2 |
| 20260906224536 | 36 | 0 | 6.4 | 16.1 | 0.00 | 0.00 | 0.00 | 41 | 1011.4 |
| 20260906224019 | 36 | 0 | 4.8 | 12.9 | 0.00 | 0.00 | 0.00 | 40 | 1011.3 |
| 20260906223517 | 36 | 0 | 0.0 | 14.5 | 0.00 | 0.00 | 0.00 | 40 | 1011.3 |
| 20260906223038 | 37 | 84 | 4.8 | 14.5 | 0.00 | 0.00 | 0.00 | 39 | 1011.4 |
| 20260906222522 | 36 | 116 | 4.8 | 14.5 | 0.00 | 0.00 | 0.00 | 40 | 1011.4 |
| 20260906222017 | 37 | 72 | 4.8 | 20.9 | 0.00 | 0.00 | 0.00 | 41 | 1011.4 |
| 20260906221534 | 37 | 178 | 6.4 | 20.9 | 0.00 | 0.00 | 0.00 | 41 | 1011.5 |
| 20260906221021 | 37 | 128 | 6.4 | 20.9 | 0.00 | 0.00 | 0.00 | 41 | 1011.4 |
| 20260906220523 | 36 | 91 | 1.6 | 12.9 | 0.00 | 0.00 | 0.00 | 41 | 1011.4 |
| 20260906220034 | 37 | 155 | 4.8 | 19.3 | 0.00 | 0.00 | 0.00 | 40 | 1011.3 |
| 20260906215518 | 37 | 234 | 6.4 | 22.5 | 0.00 | 0.00 | 0.00 | 40 | 1011.4 |
| 20260906215019 | 37 | 173 | 11.3 | 22.5 | 0.00 | 0.00 | 0.00 | 40 | 1011.4 |
| 20260906214537 | 37 | 166 | 0.0 | 11.3 | 0.00 | 0.00 | 0.00 | 42 | 1011.3 |
| 20260906214018 | 37 | 122 | 3.2 | 14.5 | 0.00 | 0.00 | 0.00 | 42 | 1011.4 |
| 20260906213518 | 37 | 115 | 4.8 | 14.5 | 0.00 | 0.00 | 0.00 | 40 | 1011.5 |
| 20260906213035 | 37 | 118 | 6.4 | 14.5 | 0.00 | 0.00 | 0.00 | 40 | 1011.5 |
| 20260906212515 | 37 | 131 | 4.8 | 16.1 | 0.00 | 0.00 | 0.00 | 40 | 1011.6 |
| 20260906212016 | 37 | 148 | 6.4 | 16.1 | 0.00 | 0.00 | 0.00 | 41 | 1011.8 |
| 20260906211536 | 36 | 118 | 1.6 | 14.5 | 0.00 | 0.00 | 0.00 | 42 | 1011.8 |
| 20260906211019 | 37 | 0 | 3.2 | 14.5 | 0.00 | 0.00 | 0.00 | 41 | 1011.8 |
| 20260906210518 | 37 | 78 | 4.8 | 12.9 | 0.00 | 0.00 | 0.00 | 41 | 1012.0 |
| 20260906210039 | 37 | 87 | 3.2 | 20.9 | 0.00 | 0.00 | 0.00 | 40 | 1012.0 |
| 20260906205520 | 37 | 88 | 4.8 | 20.9 | 0.00 | 0.00 | 0.00 | 40 | 1012.1 |
| 20260906205019 | 37 | 74 | 4.8 | 14.5 | 0.00 | 0.00 | 0.00 | 42 | 1012.2 |
| 20260906204539 | 36 | 21 | 3.2 | 11.3 | 0.00 | 0.00 | 0.00 | 43 | 1012.2 |
| 20260906204018 | 36 | 97 | 1.6 | 12.9 | 0.00 | 0.00 | 0.00 | 44 | 1012.3 |
| 20260906203516 | 37 | 105 | 3.2 | 12.9 | 0.00 | 0.00 | 0.00 | 42 | 1012.3 |
| 20260906203034 | 37 | 71 | 3.2 | 16.1 | 0.00 | 0.00 | 0.00 | 42 | 1012.3 |
| 20260906202517 | 38 | 0 | 1.6 | 17.7 | 0.00 | 0.00 | 0.00 | 42 | 1012.3 |
| 20260906202017 | 37 | 195 | 6.4 | 17.7 | 0.00 | 0.00 | 0.00 | 41 | 1012.4 |
| 20260906201538 | 37 | 207 | 9.7 | 17.7 | 0.00 | 0.00 | 0.00 | 42 | 1012.6 |
| 20260906201019 | 37 | 169 | 4.8 | 19.3 | 0.00 | 0.00 | 0.00 | 42 | 1012.5 |
| 20260906200521 | 37 | 147 | 8.0 | 19.3 | 0.00 | 0.00 | 0.00 | 41 | 1012.7 |
| 20260906200032 | 37 | 99 | 4.8 | 17.7 | 0.00 | 0.00 | 0.00 | 42 | 1012.8 |
| 20260906195520 | 37 | 126 | 6.4 | 17.7 | 0.00 | 0.00 | 0.00 | 43 | 1012.8 |
| 20260906195017 | 37 | 129 | 6.4 | 16.1 | 0.00 | 0.00 | 0.00 | 43 | 1012.8 |
| 20260906194536 | 36 | 41 | 3.2 | 17.7 | 0.00 | 0.00 | 0.00 | 43 | 1012.9 |
| 20260906194018 | 36 | 127 | 6.4 | 17.7 | 0.00 | 0.00 | 0.00 | 44 | 1013.0 |
| 20260906193519 | 37 | 107 | 6.4 | 17.7 | 0.00 | 0.00 | 0.00 | 43 | 1013.1 |
| 20260906193034 | 37 | 74 | 4.8 | 17.7 | 0.00 | 0.00 | 0.00 | 42 | 1013.0 |
| 20260906192517 | 37 | 115 | 4.8 | 20.9 | 0.00 | 0.00 | 0.00 | 42 | 1013.1 |
| 20260906192017 | 37 | 59 | 4.8 | 20.9 | 0.00 | 0.00 | 0.00 | 42 | 1013.0 |
| 20260906191532 | 36 | 80 | 8.0 | 20.9 | 0.00 | 0.00 | 0.00 | 44 | 1013.2 |
| 20260906191020 | 36 | 101 | 6.4 | 20.9 | 0.00 | 0.00 | 0.00 | 44 | 1013.3 |
| 20260906190521 | 35 | 145 | 4.8 | 16.1 | 0.00 | 0.00 | 0.00 | 46 | 1013.3 |
| 20260906190037 | 36 | 0 | 4.8 | 16.1 | 0.00 | 0.00 | 0.00 | 46 | 1013.4 |
| 20260906185517 | 36 | 180 | 8.0 | 22.5 | 0.00 | 0.00 | 0.00 | 45 | 1013.4 |
| 20260906185016 | 35 | 75 | 4.8 | 22.5 | 0.00 | 0.00 | 0.00 | 47 | 1013.4 |
| 20260906184534 | 36 | 84 | 3.2 | 17.7 | 0.00 | 0.00 | 0.00 | 46 | 1013.4 |
| 20260906184017 | 35 | 78 | 3.2 | 20.9 | 0.00 | 0.00 | 0.00 | 47 | 1013.5 |
| 20260906183524 | 36 | 219 | 11.3 | 25.7 | 0.00 | 0.00 | 0.00 | 45 | 1013.5 |
| 20260906183043 | 36 | 184 | 11.3 | 25.7 | 0.00 | 0.00 | 0.00 | 46 | 1013.7 |
| 20260906182519 | 36 | 202 | 1.6 | 12.9 | 0.00 | 0.00 | 0.00 | 47 | 1013.7 |
| 20260906182018 | 36 | 86 | 1.6 | 12.9 | 0.00 | 0.00 | 0.00 | 46 | 1013.7 |
| 20260906181535 | 36 | 113 | 4.8 | 16.1 | 0.00 | 0.00 | 0.00 | 47 | 1013.8 |
| 20260906181018 | 35 | 350 | 1.6 | 17.7 | 0.00 | 0.00 | 0.00 | 47 | 1013.9 |
| 20260906180519 | 36 | 159 | 6.4 | 20.9 | 0.00 | 0.00 | 0.00 | 46 | 1013.9 |
| 20260906180037 | 36 | 93 | 3.2 | 22.5 | 0.00 | 0.00 | 0.00 | 46 | 1014.0 |
| 20260906175518 | 36 | 192 | 8.0 | 22.5 | 0.00 | 0.00 | 0.00 | 44 | 1014.1 |
| 20260906175020 | 36 | 145 | 6.4 | 20.9 | 0.00 | 0.00 | 0.00 | 46 | 1014.2 |
| 20260906174535 | 35 | 137 | 8.0 | 20.9 | 0.00 | 0.00 | 0.00 | 46 | 1014.1 |
| 20260906174021 | 35 | 130 | 4.8 | 19.3 | 0.00 | 0.00 | 0.00 | 48 | 1014.4 |
| 20260906173520 | 35 | 182 | 8.0 | 19.3 | 0.00 | 0.00 | 0.00 | 48 | 1014.4 |
| 20260906173037 | 35 | 182 | 9.7 | 17.7 | 0.00 | 0.00 | 0.00 | 49 | 1014.4 |
| 20260906172516 | 35 | 134 | 4.8 | 14.5 | 0.00 | 0.00 | 0.00 | 50 | 1014.6 |
| 20260906172018 | 34 | 162 | 1.6 | 12.9 | 0.00 | 0.00 | 0.00 | 51 | 1014.6 |
| 20260906171535 | 35 | 118 | 4.8 | 16.1 | 0.00 | 0.00 | 0.00 | 50 | 1014.9 |
| 20260906171018 | 35 | 93 | 6.4 | 22.5 | 0.00 | 0.00 | 0.00 | 51 | 1014.8 |
| 20260906170518 | 35 | 194 | 8.0 | 22.5 | 0.00 | 0.00 | 0.00 | 51 | 1014.9 |
| 20260906170036 | 34 | 142 | 4.8 | 12.9 | 0.00 | 0.00 | 0.00 | 51 | 1015.0 |
| 20260906165519 | 34 | 59 | 6.4 | 19.3 | 0.00 | 0.00 | 0.00 | 53 | 1014.9 |
| 20260906165020 | 34 | 136 | 8.0 | 19.3 | 0.00 | 0.00 | 0.00 | 54 | 1015.0 |
| 20260906164537 | 33 | 111 | 4.8 | 20.9 | 0.00 | 0.00 | 0.00 | 54 | 1015.0 |
| 20260906164021 | 34 | 180 | 9.7 | 20.9 | 0.00 | 0.00 | 0.00 | 53 | 1015.0 |
| 20260906163518 | 33 | 168 | 6.4 | 19.3 | 0.00 | 0.00 | 0.00 | 54 | 1015.0 |
| 20260906163038 | 33 | 175 | 6.4 | 19.3 | 0.00 | 0.00 | 0.00 | 54 | 1014.9 |
| 20260906162519 | 33 | 211 | 6.4 | 19.3 | 0.00 | 0.00 | 0.00 | 55 | 1014.9 |
| 20260906162019 | 33 | 0 | 3.2 | 9.7 | 0.00 | 0.00 | 0.00 | 56 | 1014.9 |
| 20260906161534 | 33 | 0 | 0.0 | 12.9 | 0.00 | 0.00 | 0.00 | 56 | 1014.9 |
| 20260906161020 | 33 | 142 | 4.8 | 12.9 | 0.00 | 0.00 | 0.00 | 55 | 1014.8 |
| 20260906160516 | 33 | 163 | 4.8 | 17.7 | 0.00 | 0.00 | 0.00 | 56 | 1015.0 |
| 20260906160040 | 32 | 156 | 6.4 | 17.7 | 0.00 | 0.00 | 0.00 | 58 | 1015.0 |
| 20260906155520 | 32 | 178 | 1.6 | 12.9 | 0.00 | 0.00 | 0.00 | 59 | 1015.0 |
| 20260906155020 | 32 | 13 | 3.2 | 16.1 | 0.00 | 0.00 | 0.00 | 59 | 1015.0 |
| 20260906154547 | 32 | 78 | 4.8 | 16.1 | 0.00 | 0.00 | 0.00 | 62 | 1015.0 |
| 20260906154022 | 32 | 84 | 0.0 | 12.9 | 0.00 | 0.00 | 0.00 | 62 | 1015.0 |
| 20260906153518 | 32 | 82 | 1.6 | 12.9 | 0.00 | 0.00 | 0.00 | 61 | 1014.8 |
| 20260906153037 | 32 | 205 | 3.2 | 11.3 | 0.00 | 0.00 | 0.00 | 61 | 1014.8 |
| 20260906152518 | 32 | 129 | 1.6 | 11.3 | 0.00 | 0.00 | 0.00 | 63 | 1014.6 |
| 20260906152017 | 31 | 69 | 3.2 | 6.4 | 0.00 | 0.00 | 0.00 | 64 | 1014.5 |
| 20260906151536 | 31 | 57 | 1.6 | 8.0 | 0.00 | 0.00 | 0.00 | 65 | 1014.6 |
| 20260906151018 | 31 | 136 | 1.6 | 11.3 | 0.00 | 0.00 | 0.00 | 65 | 1014.7 |
| 20260906150521 | 31 | 105 | 3.2 | 11.3 | 0.00 | 0.00 | 0.00 | 66 | 1014.7 |
| 20260906150042 | 30 | 140 | 1.6 | 8.0 | 0.00 | 0.00 | 0.00 | 67 | 1014.6 |
| 20260906145516 | 31 | 124 | 1.6 | 8.0 | 0.00 | 0.00 | 0.00 | 67 | 1014.6 |
| 20260906145018 | 30 | 163 | 1.6 | 4.8 | 0.00 | 0.00 | 0.00 | 67 | 1014.5 |
| 20260906144535 | 30 | 0 | 0.0 | 3.2 | 0.00 | 0.00 | 0.00 | 68 | 1014.7 |
| 20260906144017 | 30 | 94 | 0.0 | 3.2 | 0.00 | 0.00 | 0.00 | 70 | 1014.6 |
| 20260906143516 | 29 | 0 | 0.0 | 3.2 | 0.00 | 0.00 | 0.00 | 70 | 1014.5 |
| 20260906143037 | 29 | 0 | 0.0 | 3.2 | 0.00 | 0.00 | 0.00 | 70 | 1014.6 |
| 20260906142519 | 29 | 182 | 1.6 | 3.2 | 0.00 | 0.00 | 0.00 | 71 | 1014.7 |
| 20260906142020 | 28 | 0 | 0.0 | 3.2 | 0.00 | 0.00 | 0.00 | 72 | 1014.7 |
| 20260906141535 | 28 | 0 | 0.0 | 1.6 | 0.00 | 0.00 | 0.00 | 73 | 1014.7 |
| 20260906141022 | 28 | 0 | 0.0 | 1.6 | 0.00 | 0.00 | 0.00 | 73 | 1014.8 |
| 20260906140520 | 28 | 0 | 0.0 | 4.8 | 0.00 | 0.00 | 0.00 | 73 | 1014.7 |
| 20260906140033 | 28 | 0 | 1.6 | 4.8 | 0.00 | 0.00 | 0.00 | 74 | 1014.7 |
| 20260906135518 | 28 | 0 | 0.0 | 4.8 | 0.00 | 0.00 | 0.00 | 75 | 1014.6 |
| 20260906135018 | 28 | 0 | 1.6 | 4.8 | 0.00 | 0.00 | 0.00 | 76 | 1014.6 |
| 20260906134543 | 27 | 0 | 0.0 | 4.8 | 0.00 | 0.00 | 0.00 | 76 | 1014.7 |
| 20260906134020 | 27 | 0 | 0.0 | 4.8 | 0.00 | 0.00 | 0.00 | 77 | 1014.7 |
| 20260906133518 | 27 | 0 | 0.0 | 3.2 | 0.00 | 0.00 | 0.00 | 77 | 1014.6 |
| 20260906133049 | 27 | 95 | 0.0 | 4.8 | 0.00 | 0.00 | 0.00 | 78 | 1014.6 |
| 20260906132515 | 27 | 0 | 0.0 | 4.8 | 0.00 | 0.00 | 0.00 | 78 | 1014.6 |
| 20260906132017 | 27 | 140 | 0.0 | 4.8 | 0.00 | 0.00 | 0.00 | 78 | 1014.5 |
| 20260906131536 | 27 | 0 | 0.0 | 0.0 | 0.00 | 0.00 | 0.00 | 79 | 1014.5 |
| 20260906131022 | 27 | 0 | 0.0 | 0.0 | 0.00 | 0.00 | 0.00 | 79 | 1014.4 |
| 20260906130517 | 26 | 0 | 0.0 | 3.2 | 0.00 | 0.00 | 0.00 | 80 | 1014.5 |
| 20260906130037 | 26 | 0 | 0.0 | 3.2 | 0.00 | 0.00 | 0.00 | 80 | 1014.5 |
| 20260906125518 | 26 | 0 | 0.0 | 0.0 | 0.00 | 0.00 | 0.00 | 81 | 1014.5 |
| 20260906125022 | 26 | 0 | 0.0 | 0.0 | 0.00 | 0.00 | 0.00 | 81 | 1014.4 |
| 20260906124532 | 26 | 0 | 0.0 | 0.0 | 0.00 | 0.00 | 0.00 | 82 | 1014.2 |
| 20260906124019 | 26 | 0 | 0.0 | 0.0 | 0.00 | 0.00 | 0.00 | 82 | 1014.4 |
| 20260906123518 | 26 | 0 | 0.0 | 1.6 | 0.00 | 0.00 | 0.00 | 82 | 1014.4 |
| 20260906123036 | 26 | 0 | 0.0 | 1.6 | 0.00 | 0.00 | 0.00 | 82 | 1014.2 |
| 20260906122517 | 25 | 111 | 0.0 | 1.6 | 0.00 | 0.00 | 0.00 | 82 | 1014.2 |
| 20260906122015 | 25 | 0 | 0.0 | 1.6 | 0.00 | 0.00 | 0.00 | 82 | 1014.1 |
| 20260906121536 | 25 | 0 | 0.0 | 3.2 | 0.00 | 0.00 | 0.00 | 83 | 1014.0 |
| 20260906121024 | 25 | 0 | 0.0 | 3.2 | 0.00 | 0.00 | 0.00 | 82 | 1014.0 |
| 20260906120518 | 25 | 0 | 0.0 | 0.0 | 0.00 | 0.00 | 0.00 | 82 | 1014.0 |
| 20260906120036 | 25 | 0 | 0.0 | 0.0 | 0.00 | 0.00 | 0.00 | 82 | 1014.0 |
| 20260906115521 | 26 | 0 | 0.0 | 0.0 | 0.00 | 0.00 | 0.00 | 82 | 1014.0 |
| 20260906115018 | 26 | 0 | 0.0 | 1.6 | 0.00 | 0.00 | 0.00 | 82 | 1013.9 |
| 20260906114536 | 26 | 0 | 0.0 | 3.2 | 0.00 | 0.00 | 0.00 | 82 | 1013.9 |
| 20260906114020 | 25 | 0 | 0.0 | 3.2 | 0.00 | 0.00 | 0.00 | 82 | 1013.8 |
| 20260906113517 | 25 | 0 | 0.0 | 1.6 | 0.00 | 0.00 | 0.00 | 82 | 1013.8 |
| 20260906113035 | 26 | 0 | 0.0 | 3.2 | 0.00 | 0.00 | 0.00 | 82 | 1013.7 |
| 20260906112521 | 26 | 0 | 0.0 | 3.2 | 0.00 | 0.00 | 0.00 | 82 | 1013.6 |
| 20260906112020 | 26 | 0 | 0.0 | 3.2 | 0.00 | 0.00 | 0.00 | 82 | 1013.7 |
| 20260906111540 | 26 | 101 | 0.0 | 3.2 | 0.00 | 0.00 | 0.00 | 82 | 1013.6 |
| 20260906111018 | 26 | 0 | 0.0 | 1.6 | 0.00 | 0.00 | 0.00 | 81 | 1013.6 |
| 20260906110519 | 26 | 0 | 0.0 | 1.6 | 0.00 | 0.00 | 0.00 | 81 | 1013.7 |
| 20260906110036 | 26 | 0 | 0.0 | 0.0 | 0.00 | 0.00 | 0.00 | 81 | 1013.6 |
| 20260906105518 | 26 | 0 | 0.0 | 0.0 | 0.00 | 0.00 | 0.00 | 81 | 1013.6 |
| 20260906105018 | 26 | 0 | 0.0 | 0.0 | 0.00 | 0.00 | 0.00 | 80 | 1013.5 |
| 20260906104538 | 26 | 0 | 0.0 | 0.0 | 0.00 | 0.00 | 0.00 | 80 | 1013.5 |
| 20260906104021 | 26 | 0 | 0.0 | 0.0 | 0.00 | 0.00 | 0.00 | 79 | 1013.5 |
| 20260906103520 | 26 | 0 | 0.0 | 0.0 | 0.00 | 0.00 | 0.00 | 79 | 1013.4 |
| 20260906103036 | 26 | 0 | 0.0 | 0.0 | 0.00 | 0.00 | 0.00 | 79 | 1013.5 |
| 20260906102518 | 26 | 0 | 0.0 | 0.0 | 0.00 | 0.00 | 0.00 | 79 | 1013.4 |
| 20260906102019 | 26 | 0 | 0.0 | 0.0 | 0.00 | 0.00 | 0.00 | 79 | 1013.3 |
| 20260906101533 | 26 | 0 | 0.0 | 0.0 | 0.00 | 0.00 | 0.00 | 79 | 1013.5 |
| 20260906101018 | 26 | 0 | 0.0 | 0.0 | 0.00 | 0.00 | 0.00 | 79 | 1013.4 |
| 20260906100519 | 26 | 0 | 0.0 | 0.0 | 0.00 | 0.00 | 0.00 | 79 | 1013.3 |
| 20260906100039 | 26 | 0 | 0.0 | 0.0 | 0.00 | 0.00 | 0.00 | 78 | 1013.3 |
| 20260906095517 | 26 | 0 | 0.0 | 0.0 | 0.00 | 0.00 | 0.00 | 78 | 1013.3 |
| 20260906095016 | 26 | 0 | 0.0 | 0.0 | 0.00 | 0.00 | 0.00 | 78 | 1013.2 |
| 20260906094537 | 26 | 0 | 0.0 | 4.8 | 0.00 | 0.00 | 0.00 | 77 | 1013.2 |
| 20260906094019 | 27 | 0 | 0.0 | 4.8 | 0.00 | 0.00 | 0.00 | 76 | 1013.0 |
| 20260906093519 | 27 | 0 | 0.0 | 4.8 | 0.00 | 0.00 | 0.00 | 76 | 1012.9 |
| 20260906093036 | 27 | 0 | 0.0 | 4.8 | 0.00 | 0.00 | 0.00 | 76 | 1012.9 |
| 20260906092517 | 27 | 0 | 1.6 | 4.8 | 0.00 | 0.00 | 0.00 | 76 | 1012.9 |
| 20260906092018 | 27 | 172 | 0.0 | 8.0 | 0.00 | 0.00 | 0.00 | 75 | 1012.9 |
| 20260906091536 | 27 | 182 | 1.6 | 8.0 | 0.00 | 0.00 | 0.00 | 75 | 1012.9 |
| 20260906091018 | 27 | 214 | 1.6 | 6.4 | 0.00 | 0.00 | 0.00 | 75 | 1012.7 |
| 20260906090517 | 27 | 187 | 3.2 | 8.0 | 0.00 | 0.00 | 0.00 | 75 | 1012.8 |
| 20260906090038 | 27 | 218 | 3.2 | 8.0 | 0.00 | 0.00 | 0.00 | 75 | 1012.7 |
| 20260906085517 | 27 | 236 | 3.2 | 11.3 | 0.00 | 0.00 | 0.00 | 75 | 1012.7 |
| 20260906085022 | 27 | 149 | 4.8 | 11.3 | 0.00 | 0.00 | 0.00 | 74 | 1012.7 |
| 20260906084538 | 27 | 217 | 1.6 | 8.0 | 0.00 | 0.00 | 0.00 | 74 | 1012.8 |
| 20260906084020 | 27 | 0 | 1.6 | 12.9 | 0.00 | 0.00 | 0.00 | 74 | 1012.8 |
| 20260906083519 | 27 | 178 | 3.2 | 12.9 | 0.00 | 0.00 | 0.00 | 74 | 1012.8 |
| 20260906083032 | 27 | 172 | 4.8 | 12.9 | 0.00 | 0.00 | 0.00 | 74 | 1012.7 |
| 20260906082521 | 27 | 214 | 4.8 | 9.7 | 0.00 | 0.00 | 0.00 | 74 | 1012.7 |
| 20260906082018 | 27 | 160 | 1.6 | 8.0 | 0.00 | 0.00 | 0.00 | 74 | 1012.7 |
| 20260906081534 | 27 | 219 | 3.2 | 8.0 | 0.00 | 0.00 | 0.00 | 74 | 1012.4 |
| 20260906081016 | 27 | 0 | 1.6 | 8.0 | 0.00 | 0.00 | 0.00 | 73 | 1012.7 |
| 20260906080522 | 28 | 190 | 4.8 | 12.9 | 0.00 | 0.00 | 0.00 | 73 | 1012.8 |
| 20260906080039 | 28 | 183 | 1.6 | 12.9 | 0.00 | 0.00 | 0.00 | 73 | 1012.9 |
| 20260906075517 | 28 | 210 | 3.2 | 9.7 | 0.00 | 0.00 | 0.00 | 73 | 1012.9 |
| 20260906075017 | 28 | 219 | 4.8 | 9.7 | 0.00 | 0.00 | 0.00 | 73 | 1013.0 |
| 20260906074536 | 28 | 222 | 4.8 | 9.7 | 0.00 | 0.00 | 0.00 | 73 | 1013.0 |
| 20260906074023 | 28 | 214 | 3.2 | 6.4 | 0.00 | 0.00 | 0.00 | 73 | 1012.9 |
| 20260906073519 | 28 | 185 | 1.6 | 8.0 | 0.00 | 0.00 | 0.00 | 73 | 1012.8 |
| 20260906073035 | 28 | 187 | 3.2 | 8.0 | 0.00 | 0.00 | 0.00 | 72 | 1012.9 |
| 20260906072519 | 28 | 179 | 3.2 | 8.0 | 0.00 | 0.00 | 0.00 | 72 | 1012.9 |
| 20260906072021 | 28 | 217 | 3.2 | 11.3 | 0.00 | 0.00 | 0.00 | 72 | 1012.9 |
| 20260906071533 | 28 | 220 | 1.6 | 11.3 | 0.00 | 0.00 | 0.00 | 72 | 1012.9 |
| 20260906071018 | 28 | 201 | 4.8 | 14.5 | 0.00 | 0.00 | 0.00 | 71 | 1013.0 |
| 20260906070518 | 28 | 205 | 4.8 | 16.1 | 0.00 | 0.00 | 0.00 | 71 | 1013.1 |
| 20260906070035 | 28 | 182 | 4.8 | 16.1 | 0.00 | 0.00 | 0.00 | 71 | 1013.1 |
| 20260906065521 | 28 | 160 | 4.8 | 12.9 | 0.00 | 0.00 | 0.00 | 71 | 1013.1 |
| 20260906065017 | 28 | 201 | 4.8 | 11.3 | 0.00 | 0.00 | 0.00 | 71 | 1013.2 |
| 20260906064532 | 28 | 151 | 3.2 | 11.3 | 0.00 | 0.00 | 0.00 | 70 | 1013.2 |
| 20260906064019 | 28 | 172 | 4.8 | 11.3 | 0.00 | 0.00 | 0.00 | 70 | 1013.2 |
| 20260906063516 | 28 | 159 | 4.8 | 11.3 | 0.00 | 0.00 | 0.00 | 69 | 1013.3 |
| 20260906063035 | 28 | 196 | 3.2 | 9.7 | 0.00 | 0.00 | 0.00 | 69 | 1013.2 |
| 20260906062517 | 28 | 192 | 4.8 | 9.7 | 0.00 | 0.00 | 0.00 | 68 | 1013.1 |
| 20260906062020 | 28 | 172 | 4.8 | 9.7 | 0.00 | 0.00 | 0.00 | 68 | 1013.0 |
| 20260906061536 | 28 | 197 | 3.2 | 11.3 | 0.00 | 0.00 | 0.00 | 68 | 1013.1 |
| 20260906061017 | 28 | 211 | 1.6 | 11.3 | 0.00 | 0.00 | 0.00 | 68 | 1013.1 |
| 20260906060516 | 29 | 146 | 3.2 | 9.7 | 0.00 | 0.00 | 0.00 | 67 | 1013.1 |
| 20260906060033 | 29 | 201 | 1.6 | 12.9 | 0.00 | 0.00 | 0.00 | 67 | 1013.1 |
| 20260906055522 | 29 | 189 | 3.2 | 12.9 | 0.00 | 0.00 | 0.00 | 67 | 1013.2 |
| 20260906055020 | 29 | 199 | 3.2 | 11.3 | 0.00 | 0.00 | 0.00 | 66 | 1013.1 |
| 20260906054533 | 29 | 159 | 4.8 | 11.3 | 0.00 | 0.00 | 0.00 | 66 | 1013.2 |
| 20260906054017 | 29 | 186 | 3.2 | 11.3 | 0.00 | 0.00 | 0.00 | 66 | 1013.2 |
| 20260906053518 | 29 | 178 | 3.2 | 11.3 | 0.00 | 0.00 | 0.00 | 66 | 1013.1 |
| 20260906053037 | 29 | 212 | 0.0 | 6.4 | 0.00 | 0.00 | 0.00 | 66 | 1012.9 |
| 20260906052523 | 29 | 0 | 1.6 | 9.7 | 0.00 | 0.00 | 0.00 | 66 | 1012.9 |
| 20260906052021 | 29 | 216 | 3.2 | 9.7 | 0.00 | 0.00 | 0.00 | 65 | 1012.9 |
| 20260906051536 | 29 | 149 | 1.6 | 8.0 | 0.00 | 0.00 | 0.00 | 65 | 1012.9 |
| 20260906051024 | 30 | 0 | 1.6 | 11.3 | 0.00 | 0.00 | 0.00 | 65 | 1013.0 |
| 20260906050516 | 30 | 0 | 1.6 | 11.3 | 0.00 | 0.00 | 0.00 | 64 | 1013.1 |
| 20260906050041 | 30 | 184 | 4.8 | 11.3 | 0.00 | 0.00 | 0.00 | 64 | 1013.1 |
| 20260906045518 | 30 | 202 | 3.2 | 11.3 | 0.00 | 0.00 | 0.00 | 64 | 1013.0 |
| 20260906045018 | 30 | 133 | 4.8 | 17.7 | 0.00 | 0.00 | 0.00 | 64 | 1013.1 |
| 20260906044534 | 30 | 172 | 6.4 | 17.7 | 0.00 | 0.00 | 0.00 | 64 | 1013.0 |
| 20260906044025 | 30 | 195 | 4.8 | 12.9 | 0.00 | 0.00 | 0.00 | 64 | 1013.1 |
| 20260906043519 | 30 | 0 | 4.8 | 9.7 | 0.00 | 0.00 | 0.00 | 64 | 1013.2 |
| 20260906043038 | 30 | 131 | 4.8 | 9.7 | 0.00 | 0.00 | 0.00 | 64 | 1013.2 |
| 20260906042519 | 30 | 0 | 1.6 | 14.5 | 0.00 | 0.00 | 0.00 | 63 | 1013.2 |
| 20260906042019 | 30 | 100 | 3.2 | 14.5 | 0.00 | 0.00 | 0.00 | 63 | 1013.2 |
| 20260906041533 | 30 | 186 | 6.4 | 12.9 | 0.00 | 0.00 | 0.00 | 63 | 1013.0 |
| 20260906041019 | 30 | 171 | 3.2 | 12.9 | 0.00 | 0.00 | 0.00 | 62 | 1013.0 |
| 20260906040518 | 30 | 132 | 6.4 | 14.5 | 0.00 | 0.00 | 0.00 | 62 | 1013.0 |
| 20260906040039 | 30 | 177 | 4.8 | 14.5 | 0.00 | 0.00 | 0.00 | 62 | 1012.9 |
| 20260906035518 | 30 | 169 | 4.8 | 12.9 | 0.00 | 0.00 | 0.00 | 62 | 1013.0 |
| 20260906035019 | 30 | 213 | 4.8 | 12.9 | 0.00 | 0.00 | 0.00 | 62 | 1013.1 |
| 20260906034541 | 30 | 188 | 4.8 | 14.5 | 0.00 | 0.00 | 0.00 | 62 | 1013.1 |
| 20260906034020 | 30 | 182 | 6.4 | 14.5 | 0.00 | 0.00 | 0.00 | 62 | 1013.1 |
| 20260906033519 | 30 | 0 | 3.2 | 16.1 | 0.00 | 0.00 | 0.00 | 62 | 1013.1 |
| 20260906033044 | 30 | 0 | 4.8 | 16.1 | 0.00 | 0.00 | 0.00 | 61 | 1012.9 |
| 20260906032518 | 30 | 190 | 6.4 | 17.7 | 0.00 | 0.00 | 0.00 | 61 | 1013.0 |
| 20260906032019 | 30 | 213 | 9.7 | 20.9 | 0.00 | 0.00 | 0.00 | 61 | 1013.1 |
| 20260906031536 | 31 | 145 | 8.0 | 20.9 | 0.00 | 0.00 | 0.00 | 60 | 1013.1 |
| 20260906031019 | 31 | 157 | 8.0 | 17.7 | 0.00 | 0.00 | 0.00 | 60 | 1013.2 |
| 20260906030517 | 31 | 233 | 6.4 | 25.7 | 0.00 | 0.00 | 0.00 | 60 | 1013.1 |
| 20260906030039 | 31 | 197 | 8.0 | 25.7 | 0.00 | 0.00 | 0.00 | 60 | 1013.1 |
| 20260906025521 | 31 | 168 | 11.3 | 24.1 | 0.00 | 0.00 | 0.00 | 59 | 1013.1 |
| 20260906025021 | 31 | 124 | 4.8 | 20.9 | 0.00 | 0.00 | 0.00 | 59 | 1013.0 |
| 20260906024542 | 31 | 113 | 4.8 | 24.1 | 0.00 | 0.00 | 0.00 | 59 | 1012.9 |
| 20260906024020 | 31 | 194 | 9.7 | 24.1 | 0.00 | 0.00 | 0.00 | 59 | 1012.8 |
| 20260906023524 | 31 | 164 | 8.0 | 22.5 | 0.00 | 0.00 | 0.00 | 59 | 1012.8 |
| 20260906023036 | 31 | 84 | 6.4 | 20.9 | 0.00 | 0.00 | 0.00 | 59 | 1012.6 |
| 20260906022518 | 31 | 181 | 4.8 | 16.1 | 0.00 | 0.00 | 0.00 | 59 | 1012.6 |
| 20260906022016 | 31 | 151 | 6.4 | 16.1 | 0.00 | 0.00 | 0.00 | 59 | 1012.4 |
| 20260906021538 | 31 | 132 | 4.8 | 16.1 | 0.00 | 0.00 | 0.00 | 58 | 1012.3 |
| 20260906021024 | 31 | 155 | 6.4 | 16.1 | 0.00 | 0.00 | 0.00 | 58 | 1012.3 |
| 20260906020520 | 31 | 166 | 4.8 | 16.1 | 0.00 | 0.00 | 0.00 | 57 | 1012.3 |
| 20260906020049 | 31 | 170 | 6.4 | 19.3 | 0.00 | 0.00 | 0.00 | 57 | 1012.4 |
| 20260906015518 | 31 | 163 | 8.0 | 19.3 | 0.00 | 0.00 | 0.00 | 57 | 1012.2 |
| 20260906015019 | 31 | 206 | 6.4 | 17.7 | 0.00 | 0.00 | 0.00 | 57 | 1012.3 |
| 20260906014544 | 31 | 155 | 6.4 | 20.9 | 0.00 | 0.00 | 0.00 | 56 | 1012.2 |
| 20260906014018 | 32 | 122 | 6.4 | 20.9 | 0.00 | 0.00 | 0.00 | 55 | 1012.1 |
| 20260906013519 | 32 | 178 | 8.0 | 19.3 | 0.00 | 0.00 | 0.00 | 54 | 1012.0 |
| 20260906013036 | 32 | 145 | 4.8 | 19.3 | 0.00 | 0.00 | 0.00 | 53 | 1012.0 |
| 20260906012519 | 32 | 172 | 9.7 | 27.4 | 0.00 | 0.00 | 0.00 | 52 | 1011.8 |
| 20260906012018 | 33 | 151 | 12.9 | 27.4 | 0.00 | 0.00 | 0.00 | 51 | 1011.8 |
| 20260906011535 | 33 | 157 | 12.9 | 27.4 | 0.00 | 0.00 | 0.00 | 50 | 1011.6 |
| 20260906011021 | 33 | 157 | 8.0 | 25.7 | 0.00 | 0.00 | 0.00 | 50 | 1011.5 |
| 20260906010524 | 33 | 259 | 9.7 | 19.3 | 0.00 | 0.00 | 0.00 | 50 | 1011.5 |
| 20260906010040 | 34 | 159 | 3.2 | 19.3 | 0.00 | 0.00 | 0.00 | 49 | 1011.4 |
| 20260906005522 | 34 | 184 | 9.7 | 19.3 | 0.00 | 0.00 | 0.00 | 48 | 1011.3 |
| 20260906005020 | 34 | 86 | 3.2 | 16.1 | 0.00 | 0.00 | 0.00 | 46 | 1011.2 |
| 20260906004538 | 34 | 82 | 0.0 | 11.3 | 0.00 | 0.00 | 0.00 | 45 | 1011.3 |
| 20260906004022 | 35 | 118 | 1.6 | 12.9 | 0.00 | 0.00 | 0.00 | 45 | 1011.3 |
| 20260906003518 | 35 | 197 | 1.6 | 12.9 | 0.00 | 0.00 | 0.00 | 45 | 1011.2 |
| 20260906003038 | 35 | 168 | 3.2 | 12.9 | 0.00 | 0.00 | 0.00 | 44 | 1011.2 |
| 20260906002519 | 35 | 180 | 3.2 | 12.9 | 0.00 | 0.00 | 0.00 | 44 | 1011.3 |
| 20260906002019 | 35 | 103 | 3.2 | 11.3 | 0.00 | 0.00 | 0.00 | 44 | 1011.3 |
| 20260906001536 | 35 | 49 | 3.2 | 14.5 | 0.00 | 0.00 | 0.00 | 43 | 1011.3 |
| 20260906001016 | 35 | 140 | 3.2 | 14.5 | 0.00 | 0.00 | 0.00 | 43 | 1011.2 |
| 20260906000521 | 35 | 160 | 3.2 | 14.5 | 0.00 | 0.00 | 0.00 | 42 | 1011.2 |
| 20260906000041 | 36 | 155 | 4.8 | 16.1 | 0.00 | 0.00 | 0.00 | 42 | 1011.2 |
| 20260905235521 | 35 | 145 | 4.8 | 16.1 | 0.00 | 0.00 | 0.00 | 42 | 1011.1 |
| 20260905235023 | 36 | 148 | 3.2 | 12.9 | 0.00 | 0.00 | 0.00 | 42 | 1011.0 |
| 20260905234535 | 36 | 0 | 4.8 | 12.9 | 0.00 | 0.00 | 0.00 | 42 | 1011.0 |
| 20260905234018 | 36 | 149 | 1.6 | 11.3 | 0.00 | 0.00 | 0.00 | 42 | 1010.9 |
| 20260905233519 | 36 | 151 | 1.6 | 11.3 | 0.00 | 0.00 | 0.00 | 42 | 1010.9 |
| 20260905233039 | 36 | 0 | 1.6 | 11.3 | 0.00 | 0.00 | 0.00 | 42 | 1010.9 |
| 20260905232522 | 36 | 58 | 3.2 | 9.7 | 0.00 | 0.00 | 0.00 | 41 | 1011.0 |
| 20260905232019 | 36 | 138 | 1.6 | 9.7 | 0.00 | 0.00 | 0.00 | 40 | 1011.0 |
| 20260905231543 | 36 | 105 | 1.6 | 14.5 | 0.00 | 0.00 | 0.00 | 40 | 1011.0 |